sensor_id;sensor_type;location;lat;lon;timestamp;temperature;humidity
52611;DHT22;38727;40.130;18.292;2024-02-28T00:00:13;14.90;81.40
52611;DHT22;38727;40.130;18.292;2024-02-28T00:02:43;14.80;81.50
52611;DHT22;38727;40.130;18.292;2024-02-28T00:05:14;14.80;81.50
52611;DHT22;38727;40.130;18.292;2024-02-28T00:07:46;14.80;81.60
52611;DHT22;38727;40.130;18.292;2024-02-28T00:10:17;14.80;81.60
52611;DHT22;38727;40.130;18.292;2024-02-28T00:12:47;14.80;81.60
52611;DHT22;38727;40.130;18.292;2024-02-28T00:15:18;14.80;81.60
52611;DHT22;38727;40.130;18.292;2024-02-28T00:17:51;14.80;81.60
52611;DHT22;38727;40.130;18.292;2024-02-28T00:20:24;14.80;81.60
52611;DHT22;38727;40.130;18.292;2024-02-28T00:22:57;14.80;81.70
52611;DHT22;38727;40.130;18.292;2024-02-28T00:25:28;14.80;81.70
52611;DHT22;38727;40.130;18.292;2024-02-28T00:27:59;14.80;81.80
52611;DHT22;38727;40.130;18.292;2024-02-28T00:30:29;14.80;81.80
52611;DHT22;38727;40.130;18.292;2024-02-28T00:33:01;14.80;81.80
52611;DHT22;38727;40.130;18.292;2024-02-28T00:35:32;14.80;81.90
52611;DHT22;38727;40.130;18.292;2024-02-28T00:38:05;14.80;81.90
52611;DHT22;38727;40.130;18.292;2024-02-28T00:40:36;14.80;81.90
52611;DHT22;38727;40.130;18.292;2024-02-28T00:43:06;14.80;81.90
52611;DHT22;38727;40.130;18.292;2024-02-28T00:45:36;14.80;81.90
52611;DHT22;38727;40.130;18.292;2024-02-28T00:48:06;14.80;81.90
52611;DHT22;38727;40.130;18.292;2024-02-28T00:50:37;14.80;81.80
52611;DHT22;38727;40.130;18.292;2024-02-28T00:53:09;14.80;81.80
52611;DHT22;38727;40.130;18.292;2024-02-28T00:55:39;14.80;81.80
52611;DHT22;38727;40.130;18.292;2024-02-28T00:58:10;14.80;81.70
52611;DHT22;38727;40.130;18.292;2024-02-28T01:00:41;14.80;81.60
52611;DHT22;38727;40.130;18.292;2024-02-28T01:03:12;14.80;81.50
52611;DHT22;38727;40.130;18.292;2024-02-28T01:05:44;14.80;81.50
52611;DHT22;38727;40.130;18.292;2024-02-28T01:08:17;14.80;81.50
52611;DHT22;38727;40.130;18.292;2024-02-28T01:10:48;14.80;81.40
52611;DHT22;38727;40.130;18.292;2024-02-28T01:13:19;14.80;81.40
52611;DHT22;38727;40.130;18.292;2024-02-28T01:15:50;14.80;81.40
52611;DHT22;38727;40.130;18.292;2024-02-28T01:18:20;14.80;81.50
52611;DHT22;38727;40.130;18.292;2024-02-28T01:20:52;14.80;81.50
52611;DHT22;38727;40.130;18.292;2024-02-28T01:23:23;14.80;81.50
52611;DHT22;38727;40.130;18.292;2024-02-28T01:25:52;14.70;81.50
52611;DHT22;38727;40.130;18.292;2024-02-28T01:28:23;14.80;81.50
52611;DHT22;38727;40.130;18.292;2024-02-28T01:30:54;14.70;81.50
52611;DHT22;38727;40.130;18.292;2024-02-28T01:33:25;14.70;81.50
52611;DHT22;38727;40.130;18.292;2024-02-28T01:35:56;14.70;81.50
52611;DHT22;38727;40.130;18.292;2024-02-28T01:38:27;14.70;81.50
52611;DHT22;38727;40.130;18.292;2024-02-28T01:40:57;14.70;81.60
52611;DHT22;38727;40.130;18.292;2024-02-28T01:43:28;14.70;81.60
52611;DHT22;38727;40.130;18.292;2024-02-28T01:46:01;14.70;81.70
52611;DHT22;38727;40.130;18.292;2024-02-28T01:48:33;14.70;81.70
52611;DHT22;38727;40.130;18.292;2024-02-28T01:51:05;14.70;81.70
52611;DHT22;38727;40.130;18.292;2024-02-28T01:53:37;14.80;81.60
52611;DHT22;38727;40.130;18.292;2024-02-28T01:56:08;14.80;81.60
52611;DHT22;38727;40.130;18.292;2024-02-28T01:58:39;14.80;81.60
52611;DHT22;38727;40.130;18.292;2024-02-28T02:01:10;14.80;81.60
52611;DHT22;38727;40.130;18.292;2024-02-28T02:03:44;14.80;81.50
52611;DHT22;38727;40.130;18.292;2024-02-28T02:06:14;14.70;81.60
52611;DHT22;38727;40.130;18.292;2024-02-28T02:08:47;14.80;81.60
52611;DHT22;38727;40.130;18.292;2024-02-28T02:11:17;14.80;81.50
52611;DHT22;38727;40.130;18.292;2024-02-28T02:13:49;14.70;81.50
52611;DHT22;38727;40.130;18.292;2024-02-28T02:16:20;14.70;81.70
52611;DHT22;38727;40.130;18.292;2024-02-28T02:18:54;14.70;81.70
52611;DHT22;38727;40.130;18.292;2024-02-28T02:21:30;14.70;81.70
52611;DHT22;38727;40.130;18.292;2024-02-28T02:24:02;14.70;81.80
52611;DHT22;38727;40.130;18.292;2024-02-28T02:26:33;14.70;81.80
52611;DHT22;38727;40.130;18.292;2024-02-28T02:29:04;14.70;81.80
52611;DHT22;38727;40.130;18.292;2024-02-28T02:31:35;14.70;81.90
52611;DHT22;38727;40.130;18.292;2024-02-28T02:34:06;14.70;81.90
52611;DHT22;38727;40.130;18.292;2024-02-28T02:36:37;14.70;81.90
52611;DHT22;38727;40.130;18.292;2024-02-28T02:39:09;14.70;81.90
52611;DHT22;38727;40.130;18.292;2024-02-28T02:41:40;14.70;82.00
52611;DHT22;38727;40.130;18.292;2024-02-28T02:44:11;14.70;81.90
52611;DHT22;38727;40.130;18.292;2024-02-28T02:46:42;14.70;81.90
52611;DHT22;38727;40.130;18.292;2024-02-28T02:49:13;14.80;81.90
52611;DHT22;38727;40.130;18.292;2024-02-28T02:51:44;14.80;81.90
52611;DHT22;38727;40.130;18.292;2024-02-28T02:54:16;14.80;81.90
52611;DHT22;38727;40.130;18.292;2024-02-28T02:56:45;14.80;81.80
52611;DHT22;38727;40.130;18.292;2024-02-28T02:59:16;14.80;81.90
52611;DHT22;38727;40.130;18.292;2024-02-28T03:01:49;14.80;81.80
52611;DHT22;38727;40.130;18.292;2024-02-28T03:04:20;14.80;81.90
52611;DHT22;38727;40.130;18.292;2024-02-28T03:06:51;14.80;81.80
52611;DHT22;38727;40.130;18.292;2024-02-28T03:09:23;14.70;81.80
52611;DHT22;38727;40.130;18.292;2024-02-28T03:11:54;14.80;81.80
52611;DHT22;38727;40.130;18.292;2024-02-28T03:14:25;14.70;81.80
52611;DHT22;38727;40.130;18.292;2024-02-28T03:16:56;14.70;81.80
52611;DHT22;38727;40.130;18.292;2024-02-28T03:19:26;14.80;81.80
52611;DHT22;38727;40.130;18.292;2024-02-28T03:21:57;14.80;81.70
52611;DHT22;38727;40.130;18.292;2024-02-28T03:24:30;14.80;81.70
52611;DHT22;38727;40.130;18.292;2024-02-28T03:27:01;14.80;81.80
52611;DHT22;38727;40.130;18.292;2024-02-28T03:29:32;14.70;81.70
52611;DHT22;38727;40.130;18.292;2024-02-28T03:32:03;14.80;81.80
52611;DHT22;38727;40.130;18.292;2024-02-28T03:34:34;14.80;81.80
52611;DHT22;38727;40.130;18.292;2024-02-28T03:37:05;14.80;81.70
52611;DHT22;38727;40.130;18.292;2024-02-28T03:39:37;14.80;81.70
52611;DHT22;38727;40.130;18.292;2024-02-28T03:42:08;14.80;81.70
52611;DHT22;38727;40.130;18.292;2024-02-28T03:44:39;14.80;81.60
52611;DHT22;38727;40.130;18.292;2024-02-28T03:47:10;14.80;81.60
52611;DHT22;38727;40.130;18.292;2024-02-28T03:49:41;14.80;81.50
52611;DHT22;38727;40.130;18.292;2024-02-28T03:52:11;14.80;81.40
52611;DHT22;38727;40.130;18.292;2024-02-28T03:54:44;14.80;81.40
52611;DHT22;38727;40.130;18.292;2024-02-28T03:57:14;14.80;81.40
52611;DHT22;38727;40.130;18.292;2024-02-28T03:59:45;14.80;81.40
52611;DHT22;38727;40.130;18.292;2024-02-28T04:02:15;14.80;81.30
52611;DHT22;38727;40.130;18.292;2024-02-28T04:04:46;14.80;81.30
52611;DHT22;38727;40.130;18.292;2024-02-28T04:07:17;14.80;81.30
52611;DHT22;38727;40.130;18.292;2024-02-28T04:09:50;14.80;81.20
52611;DHT22;38727;40.130;18.292;2024-02-28T04:12:21;14.80;81.00
52611;DHT22;38727;40.130;18.292;2024-02-28T04:14:52;14.80;80.90
52611;DHT22;38727;40.130;18.292;2024-02-28T04:17:24;14.80;80.80
52611;DHT22;38727;40.130;18.292;2024-02-28T04:19:55;14.80;80.90
52611;DHT22;38727;40.130;18.292;2024-02-28T04:22:25;14.80;80.80
52611;DHT22;38727;40.130;18.292;2024-02-28T04:24:58;14.80;80.80
52611;DHT22;38727;40.130;18.292;2024-02-28T04:27:29;14.80;80.80
52611;DHT22;38727;40.130;18.292;2024-02-28T04:29:59;14.80;80.70
52611;DHT22;38727;40.130;18.292;2024-02-28T04:32:30;14.80;80.70
52611;DHT22;38727;40.130;18.292;2024-02-28T04:35:00;14.80;80.80
52611;DHT22;38727;40.130;18.292;2024-02-28T04:37:31;14.80;80.90
52611;DHT22;38727;40.130;18.292;2024-02-28T04:40:04;14.80;80.90
52611;DHT22;38727;40.130;18.292;2024-02-28T04:42:36;14.80;81.10
52611;DHT22;38727;40.130;18.292;2024-02-28T04:45:08;14.80;81.10
52611;DHT22;38727;40.130;18.292;2024-02-28T04:47:39;14.80;81.20
52611;DHT22;38727;40.130;18.292;2024-02-28T04:50:10;14.80;81.20
52611;DHT22;38727;40.130;18.292;2024-02-28T04:52:41;14.80;81.20
52611;DHT22;38727;40.130;18.292;2024-02-28T04:55:13;14.80;81.30
52611;DHT22;38727;40.130;18.292;2024-02-28T04:57:44;14.80;81.40
52611;DHT22;38727;40.130;18.292;2024-02-28T05:00:15;14.80;81.50
52611;DHT22;38727;40.130;18.292;2024-02-28T05:02:45;14.80;81.50
52611;DHT22;38727;40.130;18.292;2024-02-28T05:05:16;14.80;81.60
52611;DHT22;38727;40.130;18.292;2024-02-28T05:07:45;14.80;81.60
52611;DHT22;38727;40.130;18.292;2024-02-28T05:10:18;14.80;81.70
52611;DHT22;38727;40.130;18.292;2024-02-28T05:12:49;14.80;81.80
52611;DHT22;38727;40.130;18.292;2024-02-28T05:15:20;14.80;81.90
52611;DHT22;38727;40.130;18.292;2024-02-28T05:17:51;14.80;81.90
52611;DHT22;38727;40.130;18.292;2024-02-28T05:20:21;14.80;81.90
52611;DHT22;38727;40.130;18.292;2024-02-28T05:22:52;14.80;81.90
52611;DHT22;38727;40.130;18.292;2024-02-28T05:25:24;14.80;82.00
52611;DHT22;38727;40.130;18.292;2024-02-28T05:27:55;14.80;82.00
52611;DHT22;38727;40.130;18.292;2024-02-28T05:30:25;14.80;82.00
52611;DHT22;38727;40.130;18.292;2024-02-28T05:32:56;14.80;82.10
52611;DHT22;38727;40.130;18.292;2024-02-28T05:35:26;14.80;82.20
52611;DHT22;38727;40.130;18.292;2024-02-28T05:37:57;14.80;82.10
52611;DHT22;38727;40.130;18.292;2024-02-28T05:40:29;14.80;82.20
52611;DHT22;38727;40.130;18.292;2024-02-28T05:43:00;14.80;82.20
52611;DHT22;38727;40.130;18.292;2024-02-28T05:45:30;14.80;82.30
52611;DHT22;38727;40.130;18.292;2024-02-28T05:48:01;14.80;82.40
52611;DHT22;38727;40.130;18.292;2024-02-28T05:50:31;14.90;82.40
52611;DHT22;38727;40.130;18.292;2024-02-28T05:53:02;14.90;82.40
52611;DHT22;38727;40.130;18.292;2024-02-28T05:55:34;14.90;82.40
52611;DHT22;38727;40.130;18.292;2024-02-28T05:58:05;14.90;82.40
52611;DHT22;38727;40.130;18.292;2024-02-28T06:00:36;15.00;82.50
52611;DHT22;38727;40.130;18.292;2024-02-28T06:03:06;15.00;82.50
52611;DHT22;38727;40.130;18.292;2024-02-28T06:05:37;15.00;82.60
52611;DHT22;38727;40.130;18.292;2024-02-28T06:08:07;15.00;82.70
52611;DHT22;38727;40.130;18.292;2024-02-28T06:10:40;15.10;82.70
52611;DHT22;38727;40.130;18.292;2024-02-28T06:13:11;15.20;82.60
52611;DHT22;38727;40.130;18.292;2024-02-28T06:15:42;15.20;82.60
52611;DHT22;38727;40.130;18.292;2024-02-28T06:18:12;15.30;82.50
52611;DHT22;38727;40.130;18.292;2024-02-28T06:20:43;15.30;82.40
52611;DHT22;38727;40.130;18.292;2024-02-28T06:23:14;15.30;82.30
52611;DHT22;38727;40.130;18.292;2024-02-28T06:25:46;15.40;82.30
52611;DHT22;38727;40.130;18.292;2024-02-28T06:28:17;15.50;82.10
52611;DHT22;38727;40.130;18.292;2024-02-28T06:30:47;15.60;82.00
52611;DHT22;38727;40.130;18.292;2024-02-28T06:33:18;15.70;82.00
52611;DHT22;38727;40.130;18.292;2024-02-28T06:35:49;15.80;81.80
52611;DHT22;38727;40.130;18.292;2024-02-28T06:38:20;16.00;81.50
52611;DHT22;38727;40.130;18.292;2024-02-28T06:40:51;16.10;80.90
52611;DHT22;38727;40.130;18.292;2024-02-28T06:43:22;16.20;80.20
52611;DHT22;38727;40.130;18.292;2024-02-28T06:45:53;16.30;80.00
52611;DHT22;38727;40.130;18.292;2024-02-28T06:48:23;16.40;79.60
52611;DHT22;38727;40.130;18.292;2024-02-28T06:50:54;16.50;79.20
52611;DHT22;38727;40.130;18.292;2024-02-28T06:53:25;16.60;78.80
52611;DHT22;38727;40.130;18.292;2024-02-28T06:55:58;16.60;78.40
52611;DHT22;38727;40.130;18.292;2024-02-28T06:58:28;16.70;77.80
52611;DHT22;38727;40.130;18.292;2024-02-28T07:00:59;16.60;77.30
52611;DHT22;38727;40.130;18.292;2024-02-28T07:03:29;16.60;77.40
52611;DHT22;38727;40.130;18.292;2024-02-28T07:06:00;16.50;77.20
52611;DHT22;38727;40.130;18.292;2024-02-28T07:08:32;16.50;76.70
52611;DHT22;38727;40.130;18.292;2024-02-28T07:11:04;16.50;76.90
52611;DHT22;38727;40.130;18.292;2024-02-28T07:13:33;16.60;76.60
52611;DHT22;38727;40.130;18.292;2024-02-28T07:16:04;16.70;76.50
52611;DHT22;38727;40.130;18.292;2024-02-28T07:18:35;16.80;75.70
52611;DHT22;38727;40.130;18.292;2024-02-28T07:21:06;16.90;75.00
52611;DHT22;38727;40.130;18.292;2024-02-28T07:23:39;17.00;74.70
52611;DHT22;38727;40.130;18.292;2024-02-28T07:26:15;17.10;74.10
52611;DHT22;38727;40.130;18.292;2024-02-28T07:28:46;17.30;74.10
52611;DHT22;38727;40.130;18.292;2024-02-28T07:31:18;17.40;72.70
52611;DHT22;38727;40.130;18.292;2024-02-28T07:33:49;17.40;72.30
52611;DHT22;38727;40.130;18.292;2024-02-28T07:36:19;17.50;71.50
52611;DHT22;38727;40.130;18.292;2024-02-28T07:38:51;17.50;70.90
52611;DHT22;38727;40.130;18.292;2024-02-28T07:41:23;17.50;70.70
52611;DHT22;38727;40.130;18.292;2024-02-28T07:43:54;17.60;70.40
52611;DHT22;38727;40.130;18.292;2024-02-28T07:46:25;17.70;70.50
52611;DHT22;38727;40.130;18.292;2024-02-28T07:48:55;17.80;70.40
52611;DHT22;38727;40.130;18.292;2024-02-28T07:51:26;17.80;70.20
52611;DHT22;38727;40.130;18.292;2024-02-28T07:53:56;18.00;69.60
52611;DHT22;38727;40.130;18.292;2024-02-28T07:56:29;18.10;69.30
52611;DHT22;38727;40.130;18.292;2024-02-28T07:58:59;18.20;68.80
52611;DHT22;38727;40.130;18.292;2024-02-28T08:01:30;18.20;68.30
52611;DHT22;38727;40.130;18.292;2024-02-28T08:04:02;18.00;67.70
52611;DHT22;38727;40.130;18.292;2024-02-28T08:06:34;17.90;68.30
52611;DHT22;38727;40.130;18.292;2024-02-28T08:09:04;17.90;68.70
52611;DHT22;38727;40.130;18.292;2024-02-28T08:11:37;18.00;68.90
52611;DHT22;38727;40.130;18.292;2024-02-28T08:14:09;18.10;68.90
52611;DHT22;38727;40.130;18.292;2024-02-28T08:16:40;18.30;68.60
52611;DHT22;38727;40.130;18.292;2024-02-28T08:19:11;18.40;68.30
52611;DHT22;38727;40.130;18.292;2024-02-28T08:21:42;18.50;67.90
52611;DHT22;38727;40.130;18.292;2024-02-28T08:24:13;18.50;67.80
52611;DHT22;38727;40.130;18.292;2024-02-28T08:26:45;18.60;67.60
52611;DHT22;38727;40.130;18.292;2024-02-28T08:29:15;18.50;66.30
52611;DHT22;38727;40.130;18.292;2024-02-28T08:31:46;18.50;66.30
52611;DHT22;38727;40.130;18.292;2024-02-28T08:34:17;18.50;66.40
52611;DHT22;38727;40.130;18.292;2024-02-28T08:36:48;18.60;66.20
52611;DHT22;38727;40.130;18.292;2024-02-28T08:39:19;18.50;65.50
52611;DHT22;38727;40.130;18.292;2024-02-28T08:41:51;18.40;66.00
52611;DHT22;38727;40.130;18.292;2024-02-28T08:44:22;18.30;66.10
52611;DHT22;38727;40.130;18.292;2024-02-28T08:46:54;18.30;66.50
52611;DHT22;38727;40.130;18.292;2024-02-28T08:49:24;18.30;67.00
52611;DHT22;38727;40.130;18.292;2024-02-28T08:51:55;18.30;66.80
52611;DHT22;38727;40.130;18.292;2024-02-28T08:54:25;18.40;67.00
52611;DHT22;38727;40.130;18.292;2024-02-28T08:56:58;18.60;66.90
52611;DHT22;38727;40.130;18.292;2024-02-28T08:59:28;18.80;66.30
52611;DHT22;38727;40.130;18.292;2024-02-28T09:01:59;18.80;66.10
52611;DHT22;38727;40.130;18.292;2024-02-28T09:04:30;18.80;65.70
52611;DHT22;38727;40.130;18.292;2024-02-28T09:07:00;18.80;66.00
52611;DHT22;38727;40.130;18.292;2024-02-28T09:09:30;18.80;66.20
52611;DHT22;38727;40.130;18.292;2024-02-28T09:12:04;18.90;66.10
52611;DHT22;38727;40.130;18.292;2024-02-28T09:14:36;19.00;65.20
52611;DHT22;38727;40.130;18.292;2024-02-28T09:17:07;19.20;65.00
52611;DHT22;38727;40.130;18.292;2024-02-28T09:19:37;19.20;64.90
52611;DHT22;38727;40.130;18.292;2024-02-28T09:22:07;19.20;64.10
52611;DHT22;38727;40.130;18.292;2024-02-28T09:24:38;19.30;64.60
52611;DHT22;38727;40.130;18.292;2024-02-28T09:27:09;19.40;63.50
52611;DHT22;38727;40.130;18.292;2024-02-28T09:29:40;19.50;63.50
52611;DHT22;38727;40.130;18.292;2024-02-28T09:32:11;19.70;62.60
52611;DHT22;38727;40.130;18.292;2024-02-28T09:34:42;19.80;62.10
52611;DHT22;38727;40.130;18.292;2024-02-28T09:37:13;19.70;62.20
52611;DHT22;38727;40.130;18.292;2024-02-28T09:39:45;19.80;62.10
52611;DHT22;38727;40.130;18.292;2024-02-28T09:42:18;19.90;61.60
52611;DHT22;38727;40.130;18.292;2024-02-28T09:44:49;20.10;60.70
52611;DHT22;38727;40.130;18.292;2024-02-28T09:47:20;20.20;60.00
52611;DHT22;38727;40.130;18.292;2024-02-28T09:49:52;20.20;59.50
52611;DHT22;38727;40.130;18.292;2024-02-28T09:52:23;20.10;59.90
52611;DHT22;38727;40.130;18.292;2024-02-28T09:54:54;20.00;60.80
52611;DHT22;38727;40.130;18.292;2024-02-28T09:57:27;20.20;60.90
52611;DHT22;38727;40.130;18.292;2024-02-28T09:59:59;20.30;60.70
52611;DHT22;38727;40.130;18.292;2024-02-28T10:02:33;20.50;60.80
52611;DHT22;38727;40.130;18.292;2024-02-28T10:05:05;20.70;60.60
52611;DHT22;38727;40.130;18.292;2024-02-28T10:07:35;20.90;59.90
52611;DHT22;38727;40.130;18.292;2024-02-28T10:10:08;21.10;59.40
52611;DHT22;38727;40.130;18.292;2024-02-28T10:12:42;21.20;58.20
52611;DHT22;38727;40.130;18.292;2024-02-28T10:15:13;21.10;57.70
52611;DHT22;38727;40.130;18.292;2024-02-28T10:17:43;21.00;57.70
52611;DHT22;38727;40.130;18.292;2024-02-28T10:20:14;20.90;57.20
52611;DHT22;38727;40.130;18.292;2024-02-28T10:22:46;20.80;57.90
52611;DHT22;38727;40.130;18.292;2024-02-28T10:25:17;20.90;57.90
52611;DHT22;38727;40.130;18.292;2024-02-28T10:27:52;21.00;57.90
52611;DHT22;38727;40.130;18.292;2024-02-28T10:30:23;21.10;57.70
52611;DHT22;38727;40.130;18.292;2024-02-28T10:32:54;21.10;57.60
52611;DHT22;38727;40.130;18.292;2024-02-28T10:35:25;21.10;57.40
52611;DHT22;38727;40.130;18.292;2024-02-28T10:37:56;21.10;57.60
52611;DHT22;38727;40.130;18.292;2024-02-28T10:40:34;21.00;57.00
52611;DHT22;38727;40.130;18.292;2024-02-28T10:43:11;21.00;57.30
52611;DHT22;38727;40.130;18.292;2024-02-28T10:45:42;20.90;57.10
52611;DHT22;38727;40.130;18.292;2024-02-28T10:48:14;20.80;57.40
52611;DHT22;38727;40.130;18.292;2024-02-28T10:50:45;20.80;57.20
52611;DHT22;38727;40.130;18.292;2024-02-28T10:53:21;20.80;57.40
52611;DHT22;38727;40.130;18.292;2024-02-28T10:55:55;20.80;57.10
52611;DHT22;38727;40.130;18.292;2024-02-28T10:58:36;20.80;57.10
52611;DHT22;38727;40.130;18.292;2024-02-28T11:01:07;20.90;57.40
52611;DHT22;38727;40.130;18.292;2024-02-28T11:03:38;21.10;57.40
52611;DHT22;38727;40.130;18.292;2024-02-28T11:06:16;21.30;57.50
52611;DHT22;38727;40.130;18.292;2024-02-28T11:08:48;21.30;57.10
52611;DHT22;38727;40.130;18.292;2024-02-28T11:11:21;21.40;57.60
52611;DHT22;38727;40.130;18.292;2024-02-28T11:13:55;21.50;57.00
52611;DHT22;38727;40.130;18.292;2024-02-28T11:16:29;21.60;55.20
52611;DHT22;38727;40.130;18.292;2024-02-28T11:19:00;21.60;55.30
52611;DHT22;38727;40.130;18.292;2024-02-28T11:21:35;21.60;55.20
52611;DHT22;38727;40.130;18.292;2024-02-28T11:24:06;21.60;55.00
52611;DHT22;38727;40.130;18.292;2024-02-28T11:26:37;21.60;55.00
52611;DHT22;38727;40.130;18.292;2024-02-28T11:29:10;21.70;54.90
52611;DHT22;38727;40.130;18.292;2024-02-28T11:31:41;21.70;55.00
52611;DHT22;38727;40.130;18.292;2024-02-28T11:34:12;21.80;55.00
52611;DHT22;38727;40.130;18.292;2024-02-28T11:36:42;22.00;54.00
52611;DHT22;38727;40.130;18.292;2024-02-28T11:39:14;22.10;53.10
52611;DHT22;38727;40.130;18.292;2024-02-28T11:41:45;22.20;52.80
52611;DHT22;38727;40.130;18.292;2024-02-28T11:44:18;22.40;52.40
52611;DHT22;38727;40.130;18.292;2024-02-28T11:46:48;22.40;50.60
52611;DHT22;38727;40.130;18.292;2024-02-28T11:49:19;22.30;51.70
52611;DHT22;38727;40.130;18.292;2024-02-28T11:51:50;22.20;52.50
52611;DHT22;38727;40.130;18.292;2024-02-28T11:54:21;22.00;52.10
52611;DHT22;38727;40.130;18.292;2024-02-28T11:56:52;21.80;52.70
52611;DHT22;38727;40.130;18.292;2024-02-28T11:59:24;21.60;53.40
52611;DHT22;38727;40.130;18.292;2024-02-28T12:01:54;21.70;53.00
52611;DHT22;38727;40.130;18.292;2024-02-28T12:04:25;21.70;52.70
52611;DHT22;38727;40.130;18.292;2024-02-28T12:06:55;21.70;52.90
52611;DHT22;38727;40.130;18.292;2024-02-28T12:09:27;21.90;52.70
52611;DHT22;38727;40.130;18.292;2024-02-28T12:12:00;22.00;52.30
52611;DHT22;38727;40.130;18.292;2024-02-28T12:14:36;22.10;52.50
52611;DHT22;38727;40.130;18.292;2024-02-28T12:17:08;22.10;53.00
52611;DHT22;38727;40.130;18.292;2024-02-28T12:19:39;22.30;52.90
52611;DHT22;38727;40.130;18.292;2024-02-28T12:22:09;22.70;52.20
52611;DHT22;38727;40.130;18.292;2024-02-28T12:24:40;22.90;50.50
52611;DHT22;38727;40.130;18.292;2024-02-28T12:27:11;23.20;50.60
52611;DHT22;38727;40.130;18.292;2024-02-28T12:29:42;23.50;49.30
52611;DHT22;38727;40.130;18.292;2024-02-28T12:32:13;23.80;48.40
52611;DHT22;38727;40.130;18.292;2024-02-28T12:34:45;23.90;47.70
52611;DHT22;38727;40.130;18.292;2024-02-28T12:37:15;23.90;47.20
52611;DHT22;38727;40.130;18.292;2024-02-28T12:39:45;23.80;48.00
52611;DHT22;38727;40.130;18.292;2024-02-28T12:42:16;23.80;48.40
52611;DHT22;38727;40.130;18.292;2024-02-28T12:44:48;23.60;48.30
52611;DHT22;38727;40.130;18.292;2024-02-28T12:47:19;23.60;48.50
52611;DHT22;38727;40.130;18.292;2024-02-28T12:49:50;23.60;48.70
52611;DHT22;38727;40.130;18.292;2024-02-28T12:52:20;23.60;47.50
52611;DHT22;38727;40.130;18.292;2024-02-28T12:54:51;23.60;47.00
52611;DHT22;38727;40.130;18.292;2024-02-28T12:57:23;23.50;47.50
52611;DHT22;38727;40.130;18.292;2024-02-28T12:59:55;23.70;47.40
52611;DHT22;38727;40.130;18.292;2024-02-28T13:02:26;23.80;47.00
52611;DHT22;38727;40.130;18.292;2024-02-28T13:04:56;24.00;46.70
52611;DHT22;38727;40.130;18.292;2024-02-28T13:07:27;24.20;46.10
52611;DHT22;38727;40.130;18.292;2024-02-28T13:10:01;24.30;46.20
52611;DHT22;38727;40.130;18.292;2024-02-28T13:12:32;24.20;45.60
52611;DHT22;38727;40.130;18.292;2024-02-28T13:15:06;23.90;46.40
52611;DHT22;38727;40.130;18.292;2024-02-28T13:17:36;23.80;46.90
52611;DHT22;38727;40.130;18.292;2024-02-28T13:20:07;23.80;46.50
52611;DHT22;38727;40.130;18.292;2024-02-28T13:22:38;23.80;46.80
52611;DHT22;38727;40.130;18.292;2024-02-28T13:25:09;23.80;46.60
52611;DHT22;38727;40.130;18.292;2024-02-28T13:27:40;24.10;45.60
52611;DHT22;38727;40.130;18.292;2024-02-28T13:30:13;24.10;45.60
52611;DHT22;38727;40.130;18.292;2024-02-28T13:32:44;24.10;45.50
52611;DHT22;38727;40.130;18.292;2024-02-28T13:35:16;24.00;45.60
52611;DHT22;38727;40.130;18.292;2024-02-28T13:37:46;23.80;45.50
52611;DHT22;38727;40.130;18.292;2024-02-28T13:40:17;23.50;46.60
52611;DHT22;38727;40.130;18.292;2024-02-28T13:42:47;23.30;46.90
52611;DHT22;38727;40.130;18.292;2024-02-28T13:45:19;23.10;47.40
52611;DHT22;38727;40.130;18.292;2024-02-28T13:47:49;23.00;47.70
52611;DHT22;38727;40.130;18.292;2024-02-28T13:50:20;22.70;47.90
52611;DHT22;38727;40.130;18.292;2024-02-28T13:52:53;22.40;48.30
52611;DHT22;38727;40.130;18.292;2024-02-28T13:55:28;22.00;49.20
52611;DHT22;38727;40.130;18.292;2024-02-28T13:57:58;21.80;49.90
52611;DHT22;38727;40.130;18.292;2024-02-28T14:00:31;21.50;50.00
52611;DHT22;38727;40.130;18.292;2024-02-28T14:03:04;21.30;50.30
52611;DHT22;38727;40.130;18.292;2024-02-28T14:05:35;21.10;51.00
52611;DHT22;38727;40.130;18.292;2024-02-28T14:08:06;21.00;51.40
52611;DHT22;38727;40.130;18.292;2024-02-28T14:10:37;20.80;51.80
52611;DHT22;38727;40.130;18.292;2024-02-28T14:13:08;20.80;52.10
52611;DHT22;38727;40.130;18.292;2024-02-28T14:15:42;20.80;52.50
52611;DHT22;38727;40.130;18.292;2024-02-28T14:18:15;20.80;53.00
52611;DHT22;38727;40.130;18.292;2024-02-28T14:20:46;20.80;53.20
52611;DHT22;38727;40.130;18.292;2024-02-28T14:23:16;20.80;53.20
52611;DHT22;38727;40.130;18.292;2024-02-28T14:25:50;20.70;53.50
52611;DHT22;38727;40.130;18.292;2024-02-28T14:28:20;20.90;53.30
52611;DHT22;38727;40.130;18.292;2024-02-28T14:30:51;21.10;53.00
52611;DHT22;38727;40.130;18.292;2024-02-28T14:33:22;21.20;52.50
52611;DHT22;38727;40.130;18.292;2024-02-28T14:35:53;21.10;52.60
52611;DHT22;38727;40.130;18.292;2024-02-28T14:38:23;21.10;53.00
52611;DHT22;38727;40.130;18.292;2024-02-28T14:40:53;21.00;53.40
52611;DHT22;38727;40.130;18.292;2024-02-28T14:43:23;20.90;53.70
52611;DHT22;38727;40.130;18.292;2024-02-28T14:45:57;20.80;54.20
52611;DHT22;38727;40.130;18.292;2024-02-28T14:48:28;20.70;54.50
52611;DHT22;38727;40.130;18.292;2024-02-28T14:50:59;20.50;54.80
52611;DHT22;38727;40.130;18.292;2024-02-28T14:53:31;20.40;55.20
52611;DHT22;38727;40.130;18.292;2024-02-28T14:56:01;20.30;55.30
52611;DHT22;38727;40.130;18.292;2024-02-28T14:58:32;20.20;55.50
52611;DHT22;38727;40.130;18.292;2024-02-28T15:01:04;20.10;56.00
52611;DHT22;38727;40.130;18.292;2024-02-28T15:03:34;20.00;56.40
52611;DHT22;38727;40.130;18.292;2024-02-28T15:06:05;19.90;56.80
52611;DHT22;38727;40.130;18.292;2024-02-28T15:08:36;19.90;57.00
52611;DHT22;38727;40.130;18.292;2024-02-28T15:11:07;20.00;56.80
52611;DHT22;38727;40.130;18.292;2024-02-28T15:13:37;20.30;56.60
52611;DHT22;38727;40.130;18.292;2024-02-28T15:16:09;20.80;55.60
52611;DHT22;38727;40.130;18.292;2024-02-28T15:18:41;21.20;54.30
52611;DHT22;38727;40.130;18.292;2024-02-28T15:21:11;21.60;53.60
52611;DHT22;38727;40.130;18.292;2024-02-28T15:23:42;21.90;52.40
52611;DHT22;38727;40.130;18.292;2024-02-28T15:26:13;21.80;52.10
52611;DHT22;38727;40.130;18.292;2024-02-28T15:28:42;21.50;52.60
52611;DHT22;38727;40.130;18.292;2024-02-28T15:31:15;21.20;53.30
52611;DHT22;38727;40.130;18.292;2024-02-28T15:33:46;20.90;54.20
52611;DHT22;38727;40.130;18.292;2024-02-28T15:36:17;20.60;54.80
52611;DHT22;38727;40.130;18.292;2024-02-28T15:38:48;20.50;55.40